createdAt,value
2019-04-20T00:01:32.653Z,6.70
2019-04-20T00:04:01.033Z,6.45
2019-04-20T00:06:31.670Z,6.15
2019-04-20T00:09:09.694Z,6.50
2019-04-20T00:11:41.018Z,6.15
2019-04-20T00:14:07.160Z,6.30
2019-04-20T00:16:33.705Z,6.70
2019-04-20T00:21:43.117Z,5.92
2019-04-20T00:24:15.731Z,6.08
2019-04-20T00:29:29.476Z,5.97
2019-04-20T00:31:55.464Z,6.90
2019-04-20T00:34:18.446Z,6.65
2019-04-20T00:36:41.457Z,6.37
2019-04-20T00:39:13.217Z,6.70
2019-04-20T00:41:48.027Z,7.50
2019-04-20T00:44:17.376Z,6.65
2019-04-20T00:46:58.544Z,6.87
2019-04-20T00:49:27.274Z,6.80
2019-04-20T00:52:07.636Z,6.80
2019-04-20T00:54:13.592Z,7.20
2019-04-20T00:56:43.406Z,7.00
2019-04-20T00:59:26.030Z,7.30
2019-04-20T01:02:00.586Z,7.50
2019-04-20T01:04:29.967Z,7.55
2019-04-20T01:07:06.212Z,8.30
2019-04-20T01:09:28.949Z,8.13
2019-04-20T01:11:58.583Z,7.47
2019-04-20T01:14:37.872Z,7.97
2019-04-20T01:17:05.685Z,8.10
2019-04-20T01:19:27.982Z,8.03
2019-04-20T01:22:03.642Z,8.18
2019-04-20T01:24:33.067Z,8.33
2019-04-20T01:27:00.833Z,8.28
2019-04-20T01:29:36.621Z,8.78
2019-04-20T01:32:10.436Z,9.00
2019-04-20T01:34:42.741Z,8.80
2019-04-20T01:37:18.134Z,8.20
2019-04-20T01:39:37.208Z,9.08
2019-04-20T01:42:04.455Z,8.55
2019-04-20T01:44:38.523Z,8.83
2019-04-20T01:47:06.515Z,8.90
2019-04-20T01:49:36.798Z,9.73
2019-04-20T01:52:12.993Z,9.35
2019-04-20T01:54:56.685Z,9.88
2019-04-20T01:57:33.132Z,10.72
2019-04-20T02:00:06.056Z,9.70
2019-04-20T02:02:34.314Z,9.95
2019-04-20T02:05:09.978Z,10.60
2019-04-20T02:07:37.530Z,10.18
2019-04-20T02:10:05.279Z,11.22
2019-04-20T02:12:35.665Z,10.27
2019-04-20T02:15:04.797Z,10.88
2019-04-20T02:17:40.747Z,10.80
2019-04-20T02:20:23.368Z,10.43
2019-04-20T02:22:51.839Z,10.25
2019-04-20T02:25:05.842Z,10.05
2019-04-20T02:27:45.417Z,11.18
2019-04-20T02:30:48.200Z,10.50
2019-04-20T02:33:27.467Z,10.95
2019-04-20T02:36:08.748Z,10.65
2019-04-20T02:38:46.570Z,10.18
2019-04-20T02:43:46.790Z,10.80
2019-04-20T02:45:57.775Z,10.13
2019-04-20T02:48:35.965Z,10.55
2019-04-20T02:51:06.258Z,12.05
2019-04-20T02:53:41.551Z,12.53
2019-04-20T02:58:45.004Z,10.90
2019-04-20T03:01:11.928Z,12.05
2019-04-20T03:03:30.691Z,11.38
2019-04-20T03:06:05.240Z,11.85
2019-04-20T03:08:40.608Z,12.85
2019-04-20T03:11:19.166Z,11.70
2019-04-20T03:13:45.620Z,12.33
2019-04-20T03:16:14.963Z,12.55
2019-04-20T03:18:41.516Z,12.58
2019-04-20T03:21:21.458Z,12.23
2019-04-20T03:23:54.190Z,12.05
2019-04-20T03:26:21.447Z,12.23
2019-04-20T03:28:50.256Z,11.85
2019-04-20T03:32:14.631Z,12.90
2019-04-20T03:36:57.181Z,12.77
2019-04-20T03:39:13.874Z,12.98
2019-04-20T03:41:34.507Z,13.90
2019-04-20T03:44:03.676Z,13.45
2019-04-20T03:46:36.691Z,14.58
2019-04-20T03:49:14.632Z,13.63
2019-04-20T03:51:53.440Z,12.63
2019-04-20T03:54:30.795Z,13.35
2019-04-20T03:57:29.320Z,13.03
2019-04-20T04:00:00.450Z,14.67
2019-04-20T04:03:05.636Z,14.50
2019-04-20T04:05:27.484Z,14.27
2019-04-20T04:07:46.782Z,13.37
2019-04-20T04:10:25.918Z,14.30
2019-04-20T04:13:05.134Z,14.63
2019-04-20T04:15:37.049Z,14.40
2019-04-20T04:18:17.143Z,13.70
2019-04-20T04:20:47.850Z,14.30
2019-04-20T04:23:31.139Z,13.95
2019-04-20T04:25:59.204Z,12.78
2019-04-20T04:28:28.610Z,13.77
2019-04-20T04:31:04.078Z,13.63
2019-04-20T04:36:03.110Z,14.67
2019-04-20T04:38:37.771Z,14.35
2019-04-20T04:41:16.977Z,15.17
2019-04-20T04:43:38.957Z,13.83
2019-04-20T04:45:48.896Z,16.27
2019-04-20T04:48:25.218Z,17.03
2019-04-20T04:50:56.099Z,15.97
2019-04-20T04:53:29.847Z,15.33
2019-04-20T04:55:56.461Z,15.20
2019-04-20T04:58:19.550Z,14.47
2019-04-20T05:00:49.347Z,13.87
2019-04-20T05:03:37.581Z,12.30
2019-04-20T05:06:13.659Z,11.65
2019-04-20T05:08:31.599Z,11.22
2019-04-20T05:10:56.228Z,11.85
2019-04-20T05:13:35.650Z,11.45
2019-04-20T05:16:07.589Z,10.75
2019-04-20T05:18:51.161Z,10.00
2019-04-20T05:21:21.936Z,10.25
2019-04-20T05:23:41.371Z,10.58
2019-04-20T05:26:36.323Z,10.03
2019-04-20T05:28:58.999Z,9.70
2019-04-20T05:31:24.465Z,10.58
2019-04-20T05:34:14.438Z,10.23
2019-04-20T05:36:44.857Z,9.90
2019-04-20T05:39:29.560Z,10.25
2019-04-20T05:41:53.213Z,9.30
2019-04-20T05:44:24.784Z,9.60
2019-04-20T05:49:31.766Z,9.48
2019-04-20T05:52:10.423Z,8.95
2019-04-20T05:54:40.351Z,9.45
2019-04-20T05:57:14.446Z,9.75
2019-04-20T06:02:15.974Z,8.85
2019-04-20T06:05:00.375Z,9.98
2019-04-20T06:07:27.078Z,10.58
2019-04-20T06:10:22.033Z,9.83
2019-04-20T06:12:53.150Z,10.75
2019-04-20T06:15:40.739Z,11.03
2019-04-20T06:18:06.321Z,11.70
2019-04-20T06:21:15.814Z,11.73
2019-04-20T06:23:42.765Z,12.33
2019-04-20T06:26:20.127Z,11.95
2019-04-20T06:28:36.612Z,12.65
2019-04-20T06:31:14.918Z,12.23
2019-04-20T06:36:46.978Z,12.33
2019-04-20T06:39:32.634Z,12.47
2019-04-20T06:42:31.952Z,13.30
2019-04-20T06:44:50.843Z,13.28
2019-04-20T06:47:24.989Z,12.85
2019-04-20T06:49:51.602Z,14.25
2019-04-20T06:55:02.455Z,14.83
2019-04-20T06:57:45.365Z,14.70
2019-04-20T07:00:36.869Z,15.00
2019-04-20T07:02:48.499Z,15.45
2019-04-20T07:05:27.397Z,15.55
2019-04-20T07:08:15.512Z,14.03
2019-04-20T07:10:38.117Z,15.40
2019-04-20T07:13:00.079Z,14.93
2019-04-20T07:15:46.545Z,14.18
2019-04-20T07:18:29.980Z,14.60
2019-04-20T07:21:12.733Z,13.95
2019-04-20T07:26:06.657Z,14.23
2019-04-20T07:28:41.136Z,14.18
2019-04-20T07:31:02.823Z,15.23
2019-04-20T07:33:44.630Z,14.07
2019-04-20T07:36:04.172Z,15.15
2019-04-20T07:38:41.599Z,14.40
2019-04-20T07:41:21.624Z,14.45
2019-04-20T07:44:01.701Z,15.00
2019-04-20T07:46:37.625Z,14.23
2019-04-20T07:48:55.300Z,15.00
2019-04-20T07:51:16.122Z,14.45
2019-04-20T07:54:19.357Z,14.90
2019-04-20T07:56:37.520Z,14.58
2019-04-20T07:58:52.401Z,15.60
2019-04-20T08:01:58.841Z,15.73
2019-04-20T08:04:27.246Z,14.93
2019-04-20T08:06:54.874Z,13.22
2019-04-20T08:09:29.366Z,13.95
2019-04-20T08:12:21.726Z,14.15
2019-04-20T08:14:56.801Z,14.13
2019-04-20T08:17:44.331Z,15.40
2019-04-20T08:19:50.834Z,13.77
2019-04-20T08:22:27.014Z,15.10
2019-04-20T08:24:55.264Z,15.50
2019-04-20T08:27:14.211Z,13.48
2019-04-20T08:29:57.732Z,12.65
2019-04-20T08:32:47.037Z,13.65
2019-04-20T08:35:25.944Z,14.90
2019-04-20T08:38:21.202Z,13.68
2019-04-20T08:40:33.026Z,14.43
2019-04-20T08:43:11.194Z,14.47
2019-04-20T08:45:51.079Z,13.60
2019-04-20T08:48:25.990Z,13.98
2019-04-20T08:53:28.174Z,13.93
2019-04-20T08:55:51.470Z,13.48
2019-04-20T08:58:07.225Z,13.47
2019-04-20T09:00:46.199Z,13.30
2019-04-20T09:03:17.994Z,12.23
2019-04-20T09:05:59.519Z,12.45
2019-04-20T09:08:24.034Z,12.78
2019-04-20T09:11:05.881Z,13.08
2019-04-20T09:13:37.205Z,12.23
2019-04-20T09:16:04.256Z,13.38
2019-04-20T09:18:49.369Z,12.33
2019-04-20T09:21:32.925Z,12.60
2019-04-20T09:24:21.739Z,11.57
2019-04-20T09:26:57.274Z,12.07
2019-04-20T09:29:21.004Z,11.68
2019-04-20T09:31:52.127Z,11.63
2019-04-20T09:34:37.018Z,7.33
2019-04-20T09:37:21.729Z,12.10
2019-04-20T09:39:43.975Z,11.25
2019-04-20T09:42:14.692Z,9.80
2019-04-20T09:44:48.838Z,11.95
2019-04-20T09:47:26.468Z,12.25
2019-04-20T09:50:00.849Z,11.60
2019-04-20T09:52:38.190Z,11.30
2019-04-20T09:55:06.973Z,11.10
2019-04-20T09:57:37.968Z,11.20
2019-04-20T10:00:05.360Z,11.85
2019-04-20T10:02:27.842Z,11.73
2019-04-20T10:04:53.618Z,13.15
2019-04-20T10:07:31.163Z,12.90
2019-04-20T10:09:59.951Z,12.37
2019-04-20T10:12:29.405Z,11.78
2019-04-20T10:15:06.533Z,13.00
2019-04-20T10:17:31.720Z,12.65
2019-04-20T10:20:09.591Z,11.33
2019-04-20T10:22:33.677Z,12.47
2019-04-20T10:25:02.719Z,12.10
2019-04-20T10:27:32.773Z,11.15
2019-04-20T10:30:04.688Z,11.70
2019-04-20T10:32:40.390Z,9.05
2019-04-20T10:35:11.809Z,11.12
2019-04-20T10:37:45.235Z,10.68
2019-04-20T10:40:22.219Z,11.05
2019-04-20T10:42:45.973Z,9.90
2019-04-20T10:45:17.060Z,9.40
2019-04-20T10:47:45.748Z,10.45
2019-04-20T10:50:14.917Z,9.83
2019-04-20T10:52:47.747Z,9.38
2019-04-20T10:55:18.589Z,10.25
2019-04-20T10:57:47.555Z,9.70
2019-04-20T11:00:17.515Z,7.75
2019-04-20T11:02:48.057Z,9.00
2019-04-20T11:05:22.637Z,7.97
2019-04-20T11:07:54.727Z,9.85
2019-04-20T11:10:28.576Z,9.73
2019-04-20T11:12:54.245Z,9.25
2019-04-20T11:15:24.077Z,8.60
2019-04-20T11:17:53.440Z,8.80
2019-04-20T11:20:23.216Z,8.13
2019-04-20T11:22:58.209Z,8.78
2019-04-20T11:25:28.343Z,8.90
2019-04-20T11:27:58.728Z,8.63
2019-04-20T11:30:32.208Z,7.25
2019-04-20T11:33:02.224Z,7.80
2019-04-20T11:35:36.152Z,8.10
2019-04-20T11:38:02.853Z,8.10
2019-04-20T11:40:32.930Z,5.90
2019-04-20T11:43:01.879Z,5.55
2019-04-20T11:45:33.227Z,6.87
2019-04-20T11:48:03.203Z,7.42
2019-04-20T11:50:37.986Z,7.10
2019-04-20T11:53:06.586Z,7.50
2019-04-20T11:55:36.248Z,7.35
2019-04-20T11:58:05.914Z,6.95
2019-04-20T12:00:46.971Z,5.90
2019-04-20T12:03:23.737Z,5.05
2019-04-20T12:05:52.975Z,4.33
2019-04-20T12:08:16.694Z,4.95
2019-04-20T12:10:50.283Z,6.40
2019-04-20T12:13:16.431Z,5.60
2019-04-20T12:15:45.573Z,5.62
2019-04-20T12:18:15.735Z,5.67
2019-04-20T12:20:44.993Z,6.22
2019-04-20T12:23:14.098Z,5.42
2019-04-20T12:25:44.476Z,5.42
2019-04-20T12:28:13.736Z,5.33
2019-04-20T12:30:43.784Z,6.65
2019-04-20T12:33:13.592Z,4.97
2019-04-20T12:35:44.479Z,6.00
2019-04-20T12:38:14.629Z,6.17
2019-04-20T12:40:44.085Z,5.87
2019-04-20T12:43:13.217Z,6.00
2019-04-20T12:45:42.137Z,6.05
2019-04-20T12:48:11.442Z,5.70
2019-04-20T12:50:41.454Z,5.53
2019-04-20T12:53:13.250Z,6.10
2019-04-20T12:55:46.529Z,5.55
2019-04-20T12:58:16.736Z,4.95
2019-04-20T13:00:49.990Z,6.40
2019-04-20T13:03:19.601Z,6.45
2019-04-20T13:05:50.014Z,5.72
2019-04-20T13:08:28.443Z,6.47
2019-04-20T13:10:55.707Z,6.20
2019-04-20T13:13:30.648Z,5.28
2019-04-20T13:16:10.213Z,5.35
2019-04-20T13:18:43.526Z,5.72
2019-04-20T13:21:19.015Z,5.83
2019-04-20T13:23:48.954Z,6.30
2019-04-20T13:26:19.194Z,6.60
2019-04-20T13:28:48.758Z,6.30
2019-04-20T13:31:17.788Z,6.60
2019-04-20T13:33:47.510Z,5.95
2019-04-20T13:36:16.633Z,5.00
2019-04-20T13:38:45.896Z,6.75
2019-04-20T13:41:15.755Z,5.70
2019-04-20T13:43:45.931Z,5.53
2019-04-20T13:46:16.316Z,5.20
2019-04-20T13:48:51.034Z,5.53
2019-04-20T13:51:20.750Z,5.65
2019-04-20T13:53:53.257Z,5.37
2019-04-20T13:56:23.828Z,6.12
2019-04-20T13:58:58.060Z,5.70
2019-04-20T14:01:28.958Z,6.00
2019-04-20T14:04:05.271Z,6.33
2019-04-20T14:06:35.356Z,6.20
2019-04-20T14:09:07.439Z,5.92
2019-04-20T14:11:36.688Z,6.37
2019-04-20T14:14:08.126Z,6.03
2019-04-20T14:16:36.952Z,5.60
2019-04-20T14:19:07.059Z,6.28
2019-04-20T14:21:36.396Z,5.75
2019-04-20T14:24:08.779Z,5.78
2019-04-20T14:26:40.361Z,6.20
2019-04-20T14:29:12.729Z,5.65
2019-04-20T14:31:42.133Z,5.58
2019-04-20T14:34:15.145Z,6.20
2019-04-20T14:36:44.555Z,6.12
2019-04-20T14:39:20.290Z,7.00
2019-04-20T14:41:54.137Z,6.00
2019-04-20T14:44:27.811Z,6.03
2019-04-20T14:46:57.997Z,6.08
2019-04-20T14:49:30.614Z,6.25
2019-04-20T14:52:01.517Z,6.40
2019-04-20T14:54:39.362Z,6.40
2019-04-20T14:57:10.112Z,3.77
2019-04-20T14:59:41.333Z,6.25
2019-04-20T15:02:12.699Z,6.62
2019-04-20T15:04:45.337Z,3.67
2019-04-20T15:07:15.001Z,5.25
2019-04-20T15:09:44.667Z,5.92
2019-04-20T15:12:49.170Z,6.65
2019-04-20T15:15:10.551Z,6.40
2019-04-20T15:17:41.695Z,6.62
2019-04-20T15:22:47.721Z,5.85
2019-04-20T15:25:17.712Z,5.92
2019-04-20T15:27:48.308Z,6.10
2019-04-20T15:30:18.337Z,4.75
2019-04-20T15:32:49.765Z,5.43
2019-04-20T15:35:25.049Z,6.12
2019-04-20T15:37:57.313Z,5.22
2019-04-20T15:43:06.448Z,5.25
2019-04-20T15:45:29.422Z,5.90
2019-04-20T15:47:59.479Z,4.83
2019-04-20T15:50:29.694Z,5.62
2019-04-20T15:52:59.108Z,5.60
2019-04-20T15:55:32.948Z,5.58
2019-04-20T15:58:06.054Z,5.30
2019-04-20T16:00:34.151Z,3.67
2019-04-20T16:03:21.372Z,6.10
2019-04-20T16:05:53.276Z,5.80
2019-04-20T16:08:28.013Z,5.03
2019-04-20T16:10:57.305Z,5.33
2019-04-20T16:13:33.861Z,5.47
2019-04-20T16:15:58.106Z,5.00
2019-04-20T16:18:27.249Z,5.33
2019-04-20T16:21:06.237Z,5.67
2019-04-20T16:23:30.556Z,5.33
2019-04-20T16:26:01.762Z,5.70
2019-04-20T16:28:31.922Z,5.60
2019-04-20T16:31:01.457Z,5.70
2019-04-20T16:33:30.573Z,5.70
2019-04-20T16:36:00.656Z,5.45
2019-04-20T16:38:30.555Z,5.00
2019-04-20T16:41:00.042Z,6.03
2019-04-20T16:43:32.862Z,5.78
2019-04-20T16:45:59.309Z,5.12
2019-04-20T16:48:28.346Z,6.20
2019-04-20T16:50:57.048Z,6.50
2019-04-20T16:53:26.839Z,6.33
2019-04-20T16:55:56.822Z,7.20
2019-04-20T16:58:26.028Z,6.22
2019-04-20T17:00:55.913Z,6.80
2019-04-20T17:03:38.149Z,7.72
2019-04-20T17:05:55.940Z,7.50
2019-04-20T17:08:24.948Z,7.65
2019-04-20T17:10:53.947Z,6.97
2019-04-20T17:13:34.146Z,7.42
2019-04-20T17:15:53.031Z,7.22
2019-04-20T17:18:21.654Z,7.33
2019-04-20T17:20:50.644Z,6.67
2019-04-20T17:23:19.514Z,8.30
2019-04-20T17:25:55.361Z,7.05
2019-04-20T17:28:26.798Z,7.33
2019-04-20T17:31:07.186Z,7.40
2019-04-20T17:33:50.616Z,8.18
2019-04-20T17:36:15.001Z,7.35
2019-04-20T17:38:44.543Z,7.00
2019-04-20T17:41:38.834Z,7.40
2019-04-20T17:44:01.473Z,7.37
2019-04-20T17:46:27.265Z,7.50
2019-04-20T17:49:00.825Z,7.08
2019-04-20T17:51:34.391Z,7.13
2019-04-20T17:53:52.850Z,7.10
2019-04-20T17:56:17.425Z,7.03
2019-04-20T17:58:46.307Z,7.30
2019-04-20T18:01:26.614Z,7.95
2019-04-20T18:04:18.661Z,7.22
2019-04-20T18:06:41.529Z,7.08
2019-04-20T18:09:04.134Z,8.10
2019-04-20T18:11:25.289Z,7.47
2019-04-20T18:13:58.924Z,7.67
2019-04-20T18:16:46.549Z,7.83
2019-04-20T18:19:21.733Z,7.80
2019-04-20T18:21:47.686Z,7.80
2019-04-20T18:24:45.729Z,8.48
2019-04-20T18:27:18.777Z,8.50
2019-04-20T18:29:52.829Z,8.68
2019-04-20T18:32:23.357Z,7.87
2019-04-20T18:34:56.359Z,7.90
2019-04-20T18:37:26.589Z,7.78
2019-04-20T18:39:59.611Z,8.03
2019-04-20T18:42:31.333Z,8.33
2019-04-20T18:45:14.382Z,7.67
2019-04-20T18:47:45.241Z,8.28
2019-04-20T18:50:09.425Z,8.15
2019-04-20T18:52:29.520Z,7.90
2019-04-20T18:54:59.483Z,8.13
2019-04-20T18:57:30.786Z,7.83
2019-04-20T19:00:00.180Z,7.47
2019-04-20T19:02:33.422Z,7.40
2019-04-20T19:05:01.566Z,7.30
2019-04-20T19:07:34.894Z,7.45
2019-04-20T19:10:09.360Z,8.57
2019-04-20T19:12:42.483Z,7.23
2019-04-20T19:15:28.122Z,7.90
2019-04-20T19:17:50.004Z,7.30
2019-04-20T19:20:29.117Z,7.70
2019-04-20T19:22:58.073Z,7.83
2019-04-20T19:25:31.574Z,8.45
2019-04-20T19:27:59.274Z,7.93
2019-04-20T19:30:36.038Z,8.25
2019-04-20T19:33:14.932Z,8.43
2019-04-20T19:35:40.676Z,8.05
2019-04-20T19:38:09.625Z,8.10
2019-04-20T19:43:15.668Z,7.87
2019-04-20T19:46:07.212Z,8.03
2019-04-20T19:48:21.959Z,7.70
2019-04-20T19:51:05.919Z,8.40
2019-04-20T19:53:36.541Z,7.60
2019-04-20T19:56:00.500Z,7.72
2019-04-20T19:58:28.070Z,7.27
2019-04-20T20:00:53.802Z,7.45
2019-04-20T20:03:21.991Z,7.30
2019-04-20T20:05:53.855Z,7.15
2019-04-20T20:08:26.253Z,7.00
2019-04-20T20:10:52.646Z,7.58
2019-04-20T20:13:27.655Z,7.33
2019-04-20T20:16:09.044Z,6.95
2019-04-20T20:18:47.690Z,7.53
2019-04-20T20:21:38.523Z,7.83
2019-04-20T20:23:58.179Z,8.15
2019-04-20T20:26:50.039Z,8.43
2019-04-20T20:29:28.402Z,9.10
2019-04-20T20:32:01.701Z,9.43
2019-04-20T20:34:30.963Z,9.38
2019-04-20T20:37:01.824Z,9.40
2019-04-20T20:39:30.961Z,9.65
2019-04-20T20:42:15.187Z,9.50
2019-04-20T20:44:42.858Z,10.45
2019-04-20T20:47:31.485Z,9.60
2019-04-20T20:50:08.581Z,9.78
2019-04-20T20:52:31.826Z,9.33
2019-04-20T20:55:04.675Z,9.38
2019-04-20T21:00:12.141Z,10.15
2019-04-20T21:02:42.013Z,10.35
2019-04-20T21:05:05.870Z,10.48
2019-04-20T21:07:34.701Z,10.90
2019-04-20T21:10:06.168Z,10.68
2019-04-20T21:12:43.677Z,11.38
2019-04-20T21:15:13.359Z,11.73
2019-04-20T21:18:04.677Z,10.88
2019-04-20T21:20:20.322Z,10.63
2019-04-20T21:22:55.072Z,10.50
2019-04-20T21:25:12.971Z,10.40
2019-04-20T21:27:42.562Z,10.65
2019-04-20T21:30:18.453Z,11.28
2019-04-20T21:32:45.686Z,10.30
2019-04-20T21:35:15.516Z,10.23
2019-04-20T21:37:52.594Z,11.25
2019-04-20T21:40:25.144Z,10.40
2019-04-20T21:42:52.491Z,10.82
2019-04-20T21:45:24.840Z,10.78
2019-04-20T21:47:50.284Z,10.90
2019-04-20T21:50:36.232Z,11.30
2019-04-20T21:52:58.578Z,11.20
2019-04-20T21:55:30.058Z,11.48
2019-04-20T21:58:01.875Z,11.15
2019-04-20T22:01:06.140Z,10.48
2019-04-20T22:03:24.741Z,11.00
2019-04-20T22:06:02.580Z,11.50
2019-04-20T22:08:32.680Z,11.35
2019-04-20T22:11:03.848Z,11.00
2019-04-20T22:13:42.077Z,11.78
2019-04-20T22:16:12.237Z,11.65
2019-04-20T22:18:48.560Z,11.65
2019-04-20T22:21:21.344Z,11.90
2019-04-20T22:23:59.876Z,11.38
2019-04-20T22:26:26.237Z,11.83
2019-04-20T22:28:52.150Z,10.50
2019-04-20T22:31:29.794Z,12.18
2019-04-20T22:34:00.797Z,12.18
2019-04-20T22:36:35.499Z,11.45
2019-04-20T22:39:13.775Z,12.03
2019-04-20T22:41:59.067Z,11.48
2019-04-20T22:44:26.592Z,11.68
2019-04-20T22:46:54.351Z,11.88
2019-04-20T22:49:39.923Z,12.15
2019-04-20T22:52:05.900Z,11.73
2019-04-20T22:54:49.421Z,12.35
2019-04-20T22:57:12.855Z,12.53
2019-04-20T22:59:41.852Z,12.00
2019-04-20T23:02:06.537Z,11.90
2019-04-20T23:04:37.104Z,11.50
2019-04-20T23:07:06.299Z,11.88
2019-04-20T23:09:50.381Z,12.78
2019-04-20T23:12:17.816Z,11.73
2019-04-20T23:14:44.753Z,12.70
2019-04-20T23:17:18.446Z,13.28
2019-04-20T23:19:52.851Z,12.95
2019-04-20T23:22:23.070Z,11.80
2019-04-20T23:24:53.318Z,12.55
2019-04-20T23:27:31.253Z,12.68
2019-04-20T23:29:58.354Z,12.98
2019-04-20T23:32:30.058Z,12.77
2019-04-20T23:35:08.252Z,12.93
2019-04-20T23:37:38.530Z,12.68
2019-04-20T23:40:16.424Z,12.33
2019-04-20T23:42:58.020Z,12.53
2019-04-20T23:45:35.507Z,12.43
2019-04-20T23:48:04.322Z,12.53
2019-04-20T23:50:49.063Z,12.93
2019-04-20T23:53:19.868Z,12.60
2019-04-20T23:55:31.918Z,13.43
2019-04-20T23:58:04.998Z,12.65
